Time;durP1;ratioP1;P1;durP2;ratioP2;P2;SDS_P1;SDS_P2;PMS_P1;PMS_P2;Temp;Humidity;BMP_temperature;BMP_pressure;BME280_temperature;BME280_humidity;BME280_pressure;Samples;Min_cycle;Max_cycle;Signal;HPM_P1;HPM_P2
2022/06/22 00:01:33;;;;;;;;;;;;;;;24.01;50.26;98859.38;5052604;28;775;-67
2022/06/22 00:04:01;;;;;;;;;;;;;;;23.94;50.68;98859.13;5052010;28;819;-67
2022/06/22 00:06:39;;;;;;;;;;;;;;;23.83;50.89;98862.75;5051930;28;982;-68
2022/06/22 00:09:06;;;;;;;;;;;;;;;23.74;50.90;98860.97;5051292;28;962;-67
2022/06/22 00:11:33;;;;;;;;;;;;;;;23.62;51.37;98856.66;5051865;28;913;-67
2022/06/22 00:14:02;;;;;;;;;;;;;;;23.43;52.14;98859.22;5051759;28;869;-67
2022/06/22 00:16:33;;;;;;;;;;;;;;;23.45;51.85;98856.66;5051735;28;792;-67
2022/06/22 00:19:00;;;;;;;;;;;;;;;23.44;52.13;98853.06;5051813;28;858;-67
2022/06/22 00:21:33;;;;;;;;;;;;;;;23.39;52.30;98856.66;5051888;28;821;-68
2022/06/22 00:24:02;;;;;;;;;;;;;;;23.18;52.88;98852.56;5051632;28;897;-67
2022/06/22 00:26:31;;;;;;;;;;;;;;;22.98;53.50;98862.78;5051604;28;799;-69
2022/06/22 00:29:10;;;;;;;;;;;;;;;22.77;54.03;98864.31;5051562;28;886;-68
2022/06/22 00:31:42;;;;;;;;;;;;;;;22.51;55.38;98859.66;5051501;28;1151;-69
2022/06/22 00:34:11;;;;;;;;;;;;;;;22.40;55.78;98863.19;5051591;28;932;-67
2022/06/22 00:36:56;;;;;;;;;;;;;;;22.15;56.73;98866.91;5051732;28;803;-67
2022/06/22 00:39:23;;;;;;;;;;;;;;;21.85;57.91;98866.47;5051542;28;925;-69
2022/06/22 00:41:52;;;;;;;;;;;;;;;21.61;59.04;98867.63;5051838;28;878;-68
2022/06/22 00:44:19;;;;;;;;;;;;;;;21.49;59.70;98866.78;5051337;28;871;-67
2022/06/22 00:47:07;;;;;;;;;;;;;;;21.49;59.75;98871.66;5051325;28;1934;-69
2022/06/22 00:49:34;;;;;;;;;;;;;;;21.26;61.39;98870.69;5051377;28;929;-69
2022/06/22 00:52:04;;;;;;;;;;;;;;;21.03;61.98;98864.09;5051307;28;1004;-68
2022/06/22 00:54:33;;;;;;;;;;;;;;;20.72;63.16;98866.38;5051368;28;827;-68
2022/06/22 00:57:19;;;;;;;;;;;;;;;20.62;63.94;98864.22;5051366;28;822;-68
2022/06/22 01:00:07;;;;;;;;;;;;;;;20.67;63.82;98869.13;5051328;28;881;-68
2022/06/22 01:02:44;;;;;;;;;;;;;;;20.64;64.02;98859.66;5050974;28;1160;-67
2022/06/22 01:05:29;;;;;;;;;;;;;;;20.68;64.31;98863.00;5051266;28;889;-69
2022/06/22 01:08:05;;;;;;;;;;;;;;;20.97;63.29;98855.59;5051122;28;1945;-68
2022/06/22 01:10:36;;;;;;;;;;;;;;;20.90;63.34;98864.50;5051315;28;830;-69
2022/06/22 01:13:22;;;;;;;;;;;;;;;20.70;64.14;98857.66;5051197;28;833;-69
2022/06/22 01:15:52;;;;;;;;;;;;;;;20.48;65.01;98848.97;5050621;28;1156;-69
2022/06/22 01:18:28;;;;;;;;;;;;;;;20.27;66.00;98857.44;5051180;28;787;-67
2022/06/22 01:20:58;;;;;;;;;;;;;;;20.04;67.15;98850.78;5051091;28;854;-70
2022/06/22 01:23:45;;;;;;;;;;;;;;;19.96;67.66;98858.06;5055242;28;791;-71
2022/06/22 01:26:12;;;;;;;;;;;;;;;20.14;66.79;98857.78;5037402;28;1211;-68
2022/06/22 01:28:39;;;;;;;;;;;;;;;20.18;67.23;98849.94;5037049;28;1878;-68
2022/06/22 01:31:11;;;;;;;;;;;;;;;20.06;67.48;98859.47;5055120;28;913;-68
2022/06/22 01:33:43;;;;;;;;;;;;;;;19.91;68.07;98870.00;5054712;28;1121;-69
2022/06/22 01:36:20;;;;;;;;;;;;;;;19.78;68.70;98868.28;5054968;28;814;-68
2022/06/22 01:38:47;;;;;;;;;;;;;;;19.68;69.46;98877.28;5054725;28;869;-68
2022/06/22 01:41:33;;;;;;;;;;;;;;;19.56;69.99;98893.91;5054573;28;849;-68
2022/06/22 01:44:14;;;;;;;;;;;;;;;19.38;70.56;98894.16;5054660;28;806;-68
2022/06/22 01:46:59;;;;;;;;;;;;;;;19.27;70.96;98891.19;5054413;28;1930;-68
2022/06/22 01:49:31;;;;;;;;;;;;;;;19.31;70.80;98903.72;5054437;28;908;-69
2022/06/22 01:52:07;;;;;;;;;;;;;;;19.26;70.94;98901.59;5054476;28;866;-69
2022/06/22 01:54:43;;;;;;;;;;;;;;;19.44;70.55;98911.03;5054893;28;897;-69
2022/06/22 01:57:32;;;;;;;;;;;;;;;19.55;70.24;98906.38;5054377;28;877;-68
2022/06/22 02:00:01;;;;;;;;;;;;;;;19.57;70.12;98922.72;5054670;28;861;-71
2022/06/22 02:02:32;;;;;;;;;;;;;;;19.55;70.26;98928.81;5054173;28;807;-69
2022/06/22 02:05:11;;;;;;;;;;;;;;;19.50;70.45;98925.91;5054220;28;865;-70
2022/06/22 02:07:48;;;;;;;;;;;;;;;19.48;70.27;98931.22;5054056;28;1889;-69
2022/06/22 02:10:17;;;;;;;;;;;;;;;19.38;70.74;98941.78;5054078;28;870;-69
2022/06/22 02:12:53;;;;;;;;;;;;;;;19.18;71.38;98934.84;5054069;28;811;-70
2022/06/22 02:15:27;;;;;;;;;;;;;;;19.02;72.07;98945.72;5053875;28;795;-68
2022/06/22 02:17:54;;;;;;;;;;;;;;;19.05;70.53;98947.56;5053955;28;833;-67
2022/06/22 02:20:21;;;;;;;;;;;;;;;19.75;67.66;98939.31;5053872;28;857;-68
2022/06/22 02:22:49;;;;;;;;;;;;;;;20.14;65.73;98943.97;5053879;28;854;-68
2022/06/22 02:25:18;;;;;;;;;;;;;;;20.42;63.72;98929.53;5053804;28;810;-68
2022/06/22 02:27:45;;;;;;;;;;;;;;;20.54;63.11;98931.97;5053700;28;2020;-68
2022/06/22 02:30:11;;;;;;;;;;;;;;;20.56;62.55;98932.25;5053635;28;995;-69
2022/06/22 02:32:43;;;;;;;;;;;;;;;20.47;62.91;98937.25;5052983;28;1380;-67
2022/06/22 02:35:09;;;;;;;;;;;;;;;20.09;64.50;98939.06;5053794;28;921;-68
2022/06/22 02:37:41;;;;;;;;;;;;;;;19.74;65.85;98942.63;5054470;28;763;-67
2022/06/22 02:40:11;;;;;;;;;;;;;;;19.41;67.23;98937.22;5053554;28;818;-68
2022/06/22 02:45:25;;;;;;;;;;;;;;;18.69;70.41;98947.41;5053748;28;645;-68
2022/06/22 02:47:59;;;;;;;;;;;;;;;18.44;71.25;98954.25;5053440;28;835;-68
2022/06/22 02:50:33;;;;;;;;;;;;;;;18.26;72.07;98952.34;5053404;28;807;-68
2022/06/22 02:53:06;;;;;;;;;;;;;;;18.07;72.81;98954.50;5053255;28;811;-68
2022/06/22 02:55:36;;;;;;;;;;;;;;;18.00;73.36;98956.88;5053304;28;831;-68
2022/06/22 02:58:21;;;;;;;;;;;;;;;18.00;73.79;98957.63;5053077;28;1947;-67
2022/06/22 03:00:47;;;;;;;;;;;;;;;17.93;74.43;98958.00;5035255;28;1213;-68
2022/06/22 03:03:15;;;;;;;;;;;;;;;17.78;75.03;98971.06;5053145;28;861;-68
2022/06/22 03:05:43;;;;;;;;;;;;;;;17.61;75.88;98965.84;5053075;28;869;-67
2022/06/22 03:08:12;;;;;;;;;;;;;;;17.51;76.59;98961.53;5052976;28;827;-68
2022/06/22 03:10:43;;;;;;;;;;;;;;;17.60;76.70;98963.53;5052937;28;917;-68
2022/06/22 03:13:15;;;;;;;;;;;;;;;17.57;76.92;98956.84;5052868;28;902;-67
2022/06/22 03:15:42;;;;;;;;;;;;;;;17.57;77.45;98959.66;5052746;28;873;-67
2022/06/22 03:18:13;;;;;;;;;;;;;;;17.72;77.14;98965.34;5052775;28;1894;-67
2022/06/22 03:20:45;;;;;;;;;;;;;;;17.87;77.06;98959.88;5053013;28;854;-68
2022/06/22 03:23:45;;;;;;;;;;;;;;;18.22;76.00;98970.56;5052763;28;817;-67
2022/06/22 03:26:18;;;;;;;;;;;;;;;19.05;72.07;98962.31;5030116;28;1354;-67
2022/06/22 03:28:48;;;;;;;;;;;;;;;19.68;69.06;98964.94;5052651;28;814;-69
2022/06/22 03:31:37;;;;;;;;;;;;;;;19.99;67.94;98977.66;5052793;28;991;-66
2022/06/22 03:34:15;;;;;;;;;;;;;;;20.07;67.89;98984.41;5029117;28;1179;-67
2022/06/22 03:36:55;;;;;;;;;;;;;;;19.93;68.73;98980.41;5052712;28;1914;-67
2022/06/22 03:39:26;;;;;;;;;;;;;;;19.88;68.94;98986.69;5052316;28;1078;-67
2022/06/22 03:41:57;;;;;;;;;;;;;;;19.94;68.71;98992.38;5052376;28;834;-67
2022/06/22 03:44:27;;;;;;;;;;;;;;;19.92;69.13;98997.69;5051387;28;831;-67
2022/06/22 03:46:56;;;;;;;;;;;;;;;19.98;68.95;98998.56;5052626;28;857;-67
2022/06/22 03:49:28;;;;;;;;;;;;;;;20.09;68.58;98995.16;5052465;28;1032;-67
2022/06/22 03:52:14;;;;;;;;;;;;;;;20.26;66.67;98995.41;5052445;28;810;-66
2022/06/22 03:54:47;;;;;;;;;;;;;;;20.53;65.43;98997.03;5031265;28;1342;-67
2022/06/22 03:57:16;;;;;;;;;;;;;;;20.66;65.19;98991.88;5052033;28;1961;-66
2022/06/22 03:59:45;;;;;;;;;;;;;;;20.71;64.59;98985.53;5052051;28;802;-67
2022/06/22 04:02:13;;;;;;;;;;;;;;;20.77;64.15;98989.19;5052089;28;810;-67
2022/06/22 04:04:39;;;;;;;;;;;;;;;20.88;64.14;98996.22;5034096;28;1367;-66
2022/06/22 04:07:06;;;;;;;;;;;;;;;20.94;63.72;98988.63;5051964;28;854;-68
2022/06/22 04:09:33;;;;;;;;;;;;;;;21.03;63.57;98994.06;5051859;28;1035;-67
2022/06/22 04:12:04;;;;;;;;;;;;;;;21.06;63.95;99006.34;5051905;28;811;-67
2022/06/22 04:14:33;;;;;;;;;;;;;;;21.11;63.99;99008.47;5033775;28;1203;-67
2022/06/22 04:17:01;;;;;;;;;;;;;;;21.15;64.20;99011.84;5052107;28;1882;-69
2022/06/22 04:19:54;;;;;;;;;;;;;;;21.14;64.55;99013.84;5052144;28;833;-67
2022/06/22 04:22:23;;;;;;;;;;;;;;;21.20;64.33;99022.34;5035889;28;1225;-67
2022/06/22 04:24:53;;;;;;;;;;;;;;;21.30;64.32;99018.13;5052009;28;900;-68
2022/06/22 04:27:28;;;;;;;;;;;;;;;21.43;64.02;99019.81;5051691;28;815;-68
2022/06/22 04:30:00;;;;;;;;;;;;;;;21.66;63.61;99012.31;5051587;28;826;-68
2022/06/22 04:32:44;;;;;;;;;;;;;;;21.75;63.62;99017.78;5051374;28;1217;-67
2022/06/22 04:35:29;;;;;;;;;;;;;;;21.82;63.70;99015.28;5051471;28;858;-67
2022/06/22 04:38:00;;;;;;;;;;;;;;;21.87;64.05;99018.66;5051444;28;1905;-68
2022/06/22 04:40:53;;;;;;;;;;;;;;;21.86;64.37;99026.31;5051701;28;861;-67
2022/06/22 04:43:20;;;;;;;;;;;;;;;21.87;64.55;99027.88;5049851;28;1049;-67
2022/06/22 04:45:48;;;;;;;;;;;;;;;21.86;64.63;99025.56;5051702;28;854;-68
2022/06/22 04:48:20;;;;;;;;;;;;;;;21.87;64.34;99027.88;5033528;28;1285;-66
2022/06/22 05:00:31;;;;;;;;;;;;;;;22.27;63.06;99045.06;5055764;28;641;-66
2022/06/22 05:03:18;;;;;;;;;;;;;;;22.40;63.01;99053.84;4974585;28;737;-68
2022/06/22 05:05:45;;;;;;;;;;;;;;;22.45;62.85;99055.13;4974471;28;807;-68
2022/06/22 05:08:11;;;;;;;;;;;;;;;22.49;62.68;99047.22;4974461;28;912;-67
2022/06/22 05:10:38;;;;;;;;;;;;;;;22.56;62.75;99052.41;4974424;28;867;-69
2022/06/22 05:13:11;;;;;;;;;;;;;;;22.64;62.53;99045.03;4974682;28;886;-67
2022/06/22 05:15:40;;;;;;;;;;;;;;;22.76;62.63;99051.47;4974575;28;940;-68
2022/06/22 05:18:11;;;;;;;;;;;;;;;22.83;62.61;99060.22;4974249;28;1967;-67
2022/06/22 05:20:48;;;;;;;;;;;;;;;22.93;62.00;99054.38;4974336;28;930;-67
2022/06/22 05:23:16;;;;;;;;;;;;;;;23.06;61.16;99056.75;4974230;28;901;-67
2022/06/22 05:25:45;;;;;;;;;;;;;;;23.33;60.19;99052.47;4974247;28;866;-68
2022/06/22 05:28:18;;;;;;;;;;;;;;;23.72;58.96;99054.59;4974025;28;904;-68
2022/06/22 05:31:03;;;;;;;;;;;;;;;24.28;57.48;99056.66;4974031;28;1039;-66
2022/06/22 05:33:31;;;;;;;;;;;;;;;24.87;56.22;99047.00;4990896;28;1324;-67
2022/06/22 05:36:03;;;;;;;;;;;;;;;25.68;53.75;99044.78;5034814;28;868;-70
2022/06/22 05:38:30;;;;;;;;;;;;;;;26.28;51.77;99046.84;5034770;28;1918;-67
2022/06/22 05:40:57;;;;;;;;;;;;;;;26.50;51.56;99047.94;5034730;28;907;-67
2022/06/22 05:43:24;;;;;;;;;;;;;;;26.83;50.34;99054.56;5034586;28;865;-66
2022/06/22 05:45:54;;;;;;;;;;;;;;;27.62;48.13;99062.03;5035031;28;882;-67
2022/06/22 05:48:24;;;;;;;;;;;;;;;28.29;46.70;99060.16;5033377;28;1187;-70
2022/06/22 05:51:01;;;;;;;;;;;;;;;28.64;45.64;99058.28;5034608;28;859;-68
2022/06/22 05:53:47;;;;;;;;;;;;;;;28.94;44.71;99068.53;5034542;28;794;-68
2022/06/22 05:56:16;;;;;;;;;;;;;;;29.20;44.22;99059.22;5034484;28;815;-67
2022/06/22 05:58:46;;;;;;;;;;;;;;;29.71;43.22;99050.31;5034429;28;1890;-68
2022/06/22 06:01:20;;;;;;;;;;;;;;;30.31;42.06;99054.28;5034332;28;788;-67
2022/06/22 06:03:58;;;;;;;;;;;;;;;31.29;39.80;99043.22;5034583;28;783;-67
2022/06/22 06:06:31;;;;;;;;;;;;;;;32.47;38.05;99047.19;5034242;28;815;-68
2022/06/22 06:09:00;;;;;;;;;;;;;;;33.14;36.20;99044.00;5033520;28;850;-69
2022/06/22 06:11:54;;;;;;;;;;;;;;;33.77;35.25;99048.81;5034935;28;822;-69
2022/06/22 06:14:26;;;;;;;;;;;;;;;34.25;34.19;99040.06;5032966;28;1042;-69
2022/06/22 06:16:55;;;;;;;;;;;;;;;33.46;33.34;99037.53;5034041;28;1914;-69
2022/06/22 06:19:23;;;;;;;;;;;;;;;32.74;33.58;99041.81;5034053;28;799;-68
2022/06/22 06:21:53;;;;;;;;;;;;;;;32.62;33.77;99046.44;5034311;28;859;-68
2022/06/22 06:24:28;;;;;;;;;;;;;;;33.08;33.48;99040.59;5033862;28;799;-68
2022/06/22 06:29:51;;;;;;;;;;;;;;;33.24;32.40;99033.44;5034302;28;665;-68
2022/06/22 06:32:23;;;;;;;;;;;;;;;33.25;32.49;99039.94;5039809;28;1105;-68
2022/06/22 06:34:53;;;;;;;;;;;;;;;33.31;32.45;99035.50;5053859;28;783;-69
2022/06/22 06:37:38;;;;;;;;;;;;;;;33.64;32.23;99046.22;5053792;28;1959;-68
2022/06/22 06:40:04;;;;;;;;;;;;;;;34.11;31.59;99048.16;5053566;28;837;-69
2022/06/22 06:42:40;;;;;;;;;;;;;;;34.12;31.64;99041.13;5053375;28;835;-68
2022/06/22 06:45:20;;;;;;;;;;;;;;;33.70;31.97;99049.63;5053495;28;823;-67
2022/06/22 06:47:49;;;;;;;;;;;;;;;33.51;32.48;99047.25;5035503;28;1366;-69
2022/06/22 06:50:22;;;;;;;;;;;;;;;34.01;32.22;99047.28;5053379;28;827;-68
2022/06/22 06:52:56;;;;;;;;;;;;;;;34.59;31.59;99052.91;5053376;28;921;-72
2022/06/22 06:55:26;;;;;;;;;;;;;;;34.65;30.88;99055.56;5053326;28;854;-68
2022/06/22 06:57:57;;;;;;;;;;;;;;;34.68;31.24;99058.00;5035347;28;1878;-69
2022/06/22 07:00:23;;;;;;;;;;;;;;;35.42;28.97;99058.31;5053170;28;814;-69
2022/06/22 07:02:50;;;;;;;;;;;;;;;35.16;29.19;99049.06;5053150;28;869;-68
2022/06/22 07:05:18;;;;;;;;;;;;;;;35.43;29.58;99041.81;5035198;28;1176;-69
2022/06/22 07:08:06;;;;;;;;;;;;;;;34.62;30.54;99060.34;5052995;28;889;-69
2022/06/22 07:10:51;;;;;;;;;;;;;;;34.89;30.11;99054.72;5034841;28;1498;-69
2022/06/22 07:13:22;;;;;;;;;;;;;;;35.43;28.17;99065.56;5053010;28;890;-69
2022/06/22 07:15:51;;;;;;;;;;;;;;;34.87;27.44;99063.16;5052912;28;798;-69
2022/06/22 07:18:18;;;;;;;;;;;;;;;34.42;27.79;99067.22;5052819;28;1939;-68
2022/06/22 07:20:46;;;;;;;;;;;;;;;34.44;27.57;99055.91;5053312;28;838;-69
2022/06/22 07:23:20;;;;;;;;;;;;;;;34.75;28.09;99056.41;5053039;28;878;-72
2022/06/22 07:25:56;;;;;;;;;;;;;;;34.93;27.40;99060.81;5052775;28;794;-72
2022/06/22 07:28:25;;;;;;;;;;;;;;;35.00;27.00;99055.56;5052644;28;838;-70
2022/06/22 07:30:59;;;;;;;;;;;;;;;34.75;25.75;99057.16;5052652;28;986;-71
2022/06/22 07:33:36;;;;;;;;;;;;;;;34.30;26.31;99064.84;5052364;28;1447;-70
2022/06/22 07:36:06;;;;;;;;;;;;;;;34.75;27.18;99062.91;5052491;28;893;-71
2022/06/22 07:38:45;;;;;;;;;;;;;;;35.62;25.51;99059.16;5052797;28;1930;-69
2022/06/22 07:41:18;;;;;;;;;;;;;;;35.18;23.94;99057.06;5052363;28;814;-70
2022/06/22 07:43:54;;;;;;;;;;;;;;;34.95;25.03;99058.09;5052352;28;818;-68
2022/06/22 07:46:34;;;;;;;;;;;;;;;35.15;25.03;99058.28;5052433;28;787;-68
2022/06/22 07:49:05;;;;;;;;;;;;;;;35.12;25.07;99050.78;5052315;28;885;-71
2022/06/22 07:51:35;;;;;;;;;;;;;;;34.87;24.50;99065.28;5034277;28;1191;-67
2022/06/22 07:54:10;;;;;;;;;;;;;;;34.36;25.16;99053.16;5052455;28;858;-69
2022/06/22 07:57:02;;;;;;;;;;;;;;;34.53;25.11;99056.03;5052260;28;798;-68
2022/06/22 07:59:41;;;;;;;;;;;;;;;34.30;24.37;99049.75;5036118;28;1210;-70
2022/06/22 08:02:19;;;;;;;;;;;;;;;34.15;25.04;99033.44;5052106;28;799;-68
2022/06/22 08:04:49;;;;;;;;;;;;;;;34.06;26.00;99045.56;5051910;28;901;-69
2022/06/22 08:07:19;;;;;;;;;;;;;;;34.52;25.08;99037.28;5052002;28;830;-68
2022/06/22 08:09:51;;;;;;;;;;;;;;;34.88;25.27;99043.81;5052069;28;814;-66
2022/06/22 08:12:28;;;;;;;;;;;;;;;35.11;25.05;99055.78;5051938;28;889;-68
2022/06/22 08:14:56;;;;;;;;;;;;;;;35.13;24.83;99047.38;5033892;28;1149;-69
2022/06/22 08:17:32;;;;;;;;;;;;;;;35.17;24.93;99055.56;5051935;28;1949;-69
2022/06/22 08:19:59;;;;;;;;;;;;;;;35.20;23.99;99053.59;5051757;28;802;-69
2022/06/22 08:22:25;;;;;;;;;;;;;;;35.19;24.29;99055.72;5033885;28;918;-72
2022/06/22 08:24:54;;;;;;;;;;;;;;;35.17;24.04;99047.69;5051713;28;811;-67
2022/06/22 08:27:22;;;;;;;;;;;;;;;35.05;24.69;99049.53;5051605;28;783;-69
2022/06/22 08:29:50;;;;;;;;;;;;;;;35.01;24.53;99046.34;5051406;28;807;-69
2022/06/22 08:32:30;;;;;;;;;;;;;;;35.40;25.38;99049.53;5051426;28;1101;-68
2022/06/22 08:35:09;;;;;;;;;;;;;;;35.80;24.55;99045.50;5051896;28;755;-69
2022/06/22 08:37:46;;;;;;;;;;;;;;;35.37;26.60;99057.19;5051438;28;1972;-70
2022/06/22 08:40:31;;;;;;;;;;;;;;;35.30;27.01;99052.31;5051861;28;806;-67
2022/06/22 08:43:17;;;;;;;;;;;;;;;35.25;26.05;99055.44;5051421;28;803;-68
2022/06/22 08:45:55;;;;;;;;;;;;;;;34.89;24.69;99059.72;5051456;28;838;-69
2022/06/22 08:48:21;;;;;;;;;;;;;;;35.18;24.61;99048.44;5051429;28;799;-69
2022/06/22 08:51:06;;;;;;;;;;;;;;;35.43;24.45;99051.19;5051381;28;846;-70
2022/06/22 08:53:35;;;;;;;;;;;;;;;35.19;25.47;99047.13;5051326;28;937;-69
2022/06/22 08:56:07;;;;;;;;;;;;;;;35.02;25.76;99044.25;5051407;28;880;-69
2022/06/22 08:58:46;;;;;;;;;;;;;;;34.82;25.31;99041.19;5051326;28;1937;-70
2022/06/22 09:01:32;;;;;;;;;;;;;;;34.57;25.76;99035.53;5051558;28;814;-69
2022/06/22 09:04:18;;;;;;;;;;;;;;;33.67;26.20;99040.09;5051227;28;869;-68
2022/06/22 09:06:52;;;;;;;;;;;;;;;33.13;25.42;99026.03;5051272;28;799;-68
2022/06/22 09:09:19;;;;;;;;;;;;;;;32.38;26.63;99042.06;5051160;28;826;-68
2022/06/22 09:12:12;;;;;;;;;;;;;;;32.43;27.35;99053.28;5051311;28;814;-69
2022/06/22 09:14:39;;;;;;;;;;;;;;;32.54;26.24;99041.50;5031503;28;1514;-65
2022/06/22 09:17:06;;;;;;;;;;;;;;;31.89;25.20;99044.69;5051376;28;2019;-67
2022/06/22 09:19:44;;;;;;;;;;;;;;;31.37;26.56;99035.47;5051128;28;897;-68
2022/06/22 09:22:19;;;;;;;;;;;;;;;31.01;26.15;99038.38;5033170;28;1162;-66
2022/06/22 09:25:02;;;;;;;;;;;;;;;30.76;27.10;99040.88;5051052;28;846;-67
2022/06/22 09:27:32;;;;;;;;;;;;;;;30.77;27.42;99034.63;5051191;28;866;-70
2022/06/22 09:30:01;;;;;;;;;;;;;;;30.94;28.08;99031.31;5051065;28;854;-68
2022/06/22 09:32:34;;;;;;;;;;;;;;;31.40;28.63;99027.84;5051110;28;1170;-69
2022/06/22 09:35:14;;;;;;;;;;;;;;;31.88;26.57;99028.16;5050975;28;866;-69
2022/06/22 09:37:43;;;;;;;;;;;;;;;31.63;27.12;99016.50;5050869;28;1918;-68
2022/06/22 09:43:16;;;;;;;;;;;;;;;31.58;27.72;99006.00;5053056;28;673;-68
2022/06/22 09:46:07;;;;;;;;;;;;;;;31.22;29.12;99004.03;5054682;28;830;-70
2022/06/22 09:48:54;;;;;;;;;;;;;;;30.79;28.64;99009.16;5031357;28;1226;-70
2022/06/22 09:51:27;;;;;;;;;;;;;;;30.39;30.70;99018.06;5033542;28;1215;-67
2022/06/22 09:54:07;;;;;;;;;;;;;;;30.12;30.53;99014.59;5036664;28;1172;-69
2022/06/22 09:57:10;;;;;;;;;;;;;;;30.02;30.68;99008.66;5054478;28;798;-68
2022/06/22 09:59:37;;;;;;;;;;;;;;;29.89;30.20;99008.72;5012581;28;1240;-66
2022/06/22 10:02:13;;;;;;;;;;;;;;;29.86;31.26;99015.53;5045932;28;942;-68
2022/06/22 10:30:54;;;;;;;;;;;;;;;29.87;32.96;98997.88;6069303;22;1704;-67
2022/06/22 10:33:41;;;;;;;;;;;;;;;29.97;32.80;98991.69;5032934;28;1598;-67
2022/06/22 10:36:26;;;;;;;;;;;;;;;30.38;32.81;98988.00;5033882;28;827;-69
2022/06/22 10:38:53;;;;;;;;;;;;;;;30.76;33.61;98984.59;5033722;28;1902;-66
2022/06/22 10:56:39;;;;;;;;;;;;;;;32.77;31.29;98979.81;5033758;28;645;-70
2022/06/22 10:59:17;;;;;;;;;;;;;;;33.21;30.86;98970.88;5033352;28;1898;-69
2022/06/22 11:01:56;;;;;;;;;;;;;;;33.58;30.77;98969.06;5033302;28;849;-67
2022/06/22 11:04:41;;;;;;;;;;;;;;;33.67;30.46;98970.56;5033217;28;811;-68
2022/06/22 11:07:26;;;;;;;;;;;;;;;33.74;30.11;98975.50;5033191;28;865;-68
2022/06/22 11:09:56;;;;;;;;;;;;;;;34.00;29.14;98970.50;5033261;28;834;-68
2022/06/22 11:12:27;;;;;;;;;;;;;;;33.79;29.47;98980.22;5033103;28;871;-68
2022/06/22 11:15:26;;;;;;;;;;;;;;;33.51;29.03;98984.97;5033117;28;814;-66
2022/06/22 11:18:05;;;;;;;;;;;;;;;33.34;29.72;98971.34;5032865;28;1941;-66
2022/06/22 11:20:39;;;;;;;;;;;;;;;33.37;28.98;98969.41;5032980;28;849;-67
2022/06/22 11:23:12;;;;;;;;;;;;;;;33.61;30.05;98970.03;5032924;28;811;-68
2022/06/22 11:31:52;;;;;;;;;;;;;;;35.10;27.87;98968.16;5039940;28;1429;-66
2022/06/22 11:34:44;;;;;;;;;;;;;;;35.65;27.30;98971.78;5052560;28;807;-67
2022/06/22 11:37:09;;;;;;;;;;;;;;;36.34;27.28;98967.72;5052533;28;1905;-68
2022/06/22 11:39:39;;;;;;;;;;;;;;;36.59;26.29;98972.41;5052527;28;798;-67
2022/06/22 11:48:23;;;;;;;;;;;;;;;35.88;25.44;98959.91;5052385;28;649;-67
2022/06/22 11:51:05;;;;;;;;;;;;;;;35.93;25.60;98967.50;5052277;28;947;-67
2022/06/22 11:53:38;;;;;;;;;;;;;;;35.83;25.80;98960.97;5034342;28;1572;-69
2022/06/22 11:56:14;;;;;;;;;;;;;;;36.12;25.10;98951.63;5052305;28;965;-67
2022/06/22 11:58:43;;;;;;;;;;;;;;;36.30;25.40;98955.91;5052116;28;1897;-67
2022/06/22 12:01:24;;;;;;;;;;;;;;;35.98;24.74;98942.69;5052154;28;842;-69
2022/06/22 12:03:57;;;;;;;;;;;;;;;36.22;24.69;98945.91;5034171;28;2321;-67
2022/06/22 12:06:33;;;;;;;;;;;;;;;36.69;24.34;98943.66;5051299;28;878;-69
2022/06/22 12:09:04;;;;;;;;;;;;;;;37.06;23.96;98926.91;5051891;28;857;-69
2022/06/22 12:11:40;;;;;;;;;;;;;;;37.08;24.36;98924.19;5051985;28;818;-68
2022/06/22 12:17:18;;;;;;;;;;;;;;;37.99;23.04;98932.00;5051820;28;1958;-68
2022/06/22 12:19:51;;;;;;;;;;;;;;;38.00;23.26;98921.22;5052182;28;846;-68
2022/06/22 12:22:41;;;;;;;;;;;;;;;37.84;23.58;98926.63;5052012;28;814;-68
2022/06/22 12:28:37;;;;;;;;;;;;;;;37.76;22.21;98914.53;5051773;28;612;-68
2022/06/22 12:31:12;;;;;;;;;;;;;;;37.67;22.43;98912.47;5033463;28;1250;-68
2022/06/22 12:33:39;;;;;;;;;;;;;;;37.65;22.66;98913.09;5051648;28;829;-68
2022/06/22 12:36:11;;;;;;;;;;;;;;;37.72;22.80;98911.38;5051598;28;830;-67
2022/06/22 12:38:49;;;;;;;;;;;;;;;37.78;22.34;98911.78;5051540;28;1965;-67
2022/06/22 12:41:34;;;;;;;;;;;;;;;37.36;23.20;98907.44;5051451;28;886;-68
2022/06/22 12:44:03;;;;;;;;;;;;;;;36.80;22.74;98908.50;5051599;28;877;-67
2022/06/22 12:46:35;;;;;;;;;;;;;;;36.89;23.39;98916.34;5051454;28;836;-67
2022/06/22 12:49:17;;;;;;;;;;;;;;;36.37;22.93;98902.47;5051465;28;814;-68
2022/06/22 12:51:53;;;;;;;;;;;;;;;36.71;23.23;98901.41;5051437;28;825;-68
2022/06/22 12:54:24;;;;;;;;;;;;;;;37.49;22.76;98897.50;5051431;28;873;-67
2022/06/22 12:56:57;;;;;;;;;;;;;;;37.29;23.09;98893.97;5051738;28;876;-69
2022/06/22 12:59:49;;;;;;;;;;;;;;;36.33;22.90;98894.28;5051212;28;1906;-67
2022/06/22 13:02:17;;;;;;;;;;;;;;;36.48;23.04;98904.72;5049553;28;986;-68
2022/06/22 13:04:46;;;;;;;;;;;;;;;36.24;23.11;98891.44;5051254;28;881;-69
2022/06/22 13:07:14;;;;;;;;;;;;;;;36.54;23.24;98895.78;5051297;28;806;-68
2022/06/22 13:09:42;;;;;;;;;;;;;;;36.70;23.45;98902.78;5051238;28;878;-68
2022/06/22 13:12:27;;;;;;;;;;;;;;;36.95;22.27;98901.66;5051264;28;807;-68
2022/06/22 13:15:14;;;;;;;;;;;;;;;37.22;22.52;98909.34;5051245;28;866;-67
2022/06/22 13:30:23;;;;;;;;;;;;;;;34.94;22.42;98906.53;5055353;28;680;-66
2022/06/22 13:32:57;;;;;;;;;;;;;;;34.78;22.81;98897.38;5046064;28;1364;-67
2022/06/22 13:35:35;;;;;;;;;;;;;;;34.97;22.84;98905.34;5054829;28;850;-68
2022/06/22 13:38:10;;;;;;;;;;;;;;;35.22;23.48;98908.06;5054706;28;1906;-69
2022/06/22 13:40:37;;;;;;;;;;;;;;;35.56;23.58;98924.38;5054952;28;942;-69
2022/06/22 13:43:28;;;;;;;;;;;;;;;36.11;23.27;98912.72;5055226;28;810;-69
2022/06/22 13:46:13;;;;;;;;;;;;;;;35.71;22.62;98906.16;5054701;28;846;-69
2022/06/22 13:48:44;;;;;;;;;;;;;;;35.61;22.67;98911.09;5054832;28;818;-68
2022/06/22 13:51:39;;;;;;;;;;;;;;;35.26;23.75;98914.13;5054643;28;806;-68
2022/06/22 13:54:32;;;;;;;;;;;;;;;34.95;23.01;98910.91;5036598;28;1169;-67
2022/06/22 13:57:09;;;;;;;;;;;;;;;34.50;23.59;98921.63;5052427;28;1086;-70
2022/06/22 13:59:44;;;;;;;;;;;;;;;34.50;24.03;98924.50;5054425;28;838;-68
2022/06/22 14:02:29;;;;;;;;;;;;;;;34.74;23.65;98922.91;5054309;28;810;-67
2022/06/22 14:05:01;;;;;;;;;;;;;;;34.01;23.43;98921.16;5054286;28;848;-67
2022/06/22 14:07:47;;;;;;;;;;;;;;;33.56;23.80;98923.84;5054266;28;889;-67
2022/06/22 14:10:28;;;;;;;;;;;;;;;33.07;25.17;98919.59;5054137;28;861;-69
2022/06/22 14:13:13;;;;;;;;;;;;;;;32.13;24.09;98916.88;5054279;28;826;-66
2022/06/22 14:15:50;;;;;;;;;;;;;;;31.27;26.20;98918.19;5036291;28;1322;-68
2022/06/22 14:18:27;;;;;;;;;;;;;;;30.87;26.20;98918.69;5054020;28;1890;-67
2022/06/22 14:21:12;;;;;;;;;;;;;;;30.76;26.57;98906.84;5054139;28;794;-69
2022/06/22 14:23:40;;;;;;;;;;;;;;;30.51;27.34;98904.44;5054502;28;786;-68
2022/06/22 14:26:21;;;;;;;;;;;;;;;30.43;27.96;98912.22;5054021;28;949;-67
2022/06/22 14:29:00;;;;;;;;;;;;;;;30.56;28.18;98909.25;5052922;28;795;-67
2022/06/22 14:31:32;;;;;;;;;;;;;;;30.78;27.89;98915.59;5053790;28;1236;-68
2022/06/22 14:34:05;;;;;;;;;;;;;;;30.83;28.44;98935.41;5053817;28;873;-68
2022/06/22 14:36:37;;;;;;;;;;;;;;;30.60;27.97;98923.91;5054046;28;873;-69
2022/06/22 14:39:23;;;;;;;;;;;;;;;30.79;28.83;98928.50;5035907;28;1974;-68
2022/06/22 14:41:52;;;;;;;;;;;;;;;31.00;28.22;98929.19;5053634;28;834;-68
2022/06/22 14:44:20;;;;;;;;;;;;;;;30.69;27.42;98934.00;5053696;28;806;-69
2022/06/22 14:47:07;;;;;;;;;;;;;;;30.33;28.71;98938.38;5053812;28;810;-68
2022/06/22 14:49:55;;;;;;;;;;;;;;;30.24;29.39;98936.03;5053725;28;870;-67
2022/06/22 14:52:34;;;;;;;;;;;;;;;30.19;29.28;98928.38;5053680;28;806;-66
2022/06/22 14:55:08;;;;;;;;;;;;;;;30.13;29.31;98931.41;5035451;28;1283;-66
2022/06/22 14:57:38;;;;;;;;;;;;;;;30.08;29.42;98934.41;5053149;28;1969;-67
2022/06/22 15:00:18;;;;;;;;;;;;;;;30.29;30.32;98926.59;5053456;28;826;-67
2022/06/22 15:02:49;;;;;;;;;;;;;;;30.32;29.98;98925.47;5053239;28;795;-66
2022/06/22 15:05:29;;;;;;;;;;;;;;;30.28;29.67;98927.13;5053211;28;878;-67
2022/06/22 15:08:12;;;;;;;;;;;;;;;30.13;29.79;98920.03;5053132;28;787;-66
2022/06/22 15:10:43;;;;;;;;;;;;;;;29.85;29.24;98926.47;5053328;28;877;-67
2022/06/22 15:13:32;;;;;;;;;;;;;;;29.63;29.40;98924.94;5053033;28;862;-67
2022/06/22 15:16:01;;;;;;;;;;;;;;;29.76;29.82;98923.34;5052955;28;881;-67